sensor_id;sensor_type;location;lat;lon;timestamp;pressure;altitude;pressure_sealevel;temperature;humidity
54900;BME280;40801;41.924;25.562;2022-08-03T00:02:22;99351.13;;;23.68;48.10
54900;BME280;40801;41.924;25.562;2022-08-03T00:04:48;99350.72;;;23.66;48.44
54900;BME280;40801;41.924;25.562;2022-08-03T00:07:13;99347.19;;;23.65;48.52
54900;BME280;40801;41.924;25.562;2022-08-03T00:09:39;99346.41;;;23.61;48.38
54900;BME280;40801;41.924;25.562;2022-08-03T00:12:05;99348.75;;;23.59;48.76
54900;BME280;40801;41.924;25.562;2022-08-03T00:14:30;99344.03;;;23.56;48.64
54900;BME280;40801;41.924;25.562;2022-08-03T00:16:56;99341.28;;;23.56;48.61
54900;BME280;40801;41.924;25.562;2022-08-03T00:19:22;99345.59;;;23.50;49.08
54900;BME280;40801;41.924;25.562;2022-08-03T00:21:47;99343.22;;;23.48;48.96
54900;BME280;40801;41.924;25.562;2022-08-03T00:24:13;99344.41;;;23.44;49.05
54900;BME280;40801;41.924;25.562;2022-08-03T00:26:38;99338.88;;;23.40;49.23
54900;BME280;40801;41.924;25.562;2022-08-03T00:29:04;99341.28;;;23.42;48.92
54900;BME280;40801;41.924;25.562;2022-08-03T00:31:29;99342.41;;;23.34;49.18
54900;BME280;40801;41.924;25.562;2022-08-03T00:33:54;99334.94;;;23.31;49.53
54900;BME280;40801;41.924;25.562;2022-08-03T00:36:20;99334.94;;;23.27;49.39
54900;BME280;40801;41.924;25.562;2022-08-03T00:38:45;99330.22;;;23.24;49.71
54900;BME280;40801;41.924;25.562;2022-08-03T00:41:11;99332.59;;;23.22;49.86
54900;BME280;40801;41.924;25.562;2022-08-03T00:43:36;99331.00;;;23.17;49.68
54900;BME280;40801;41.924;25.562;2022-08-03T00:46:02;99335.28;;;23.08;49.94
54900;BME280;40801;41.924;25.562;2022-08-03T00:48:27;99329.00;;;23.00;50.24
54900;BME280;40801;41.924;25.562;2022-08-03T00:50:52;99332.13;;;22.95;50.18
54900;BME280;40801;41.924;25.562;2022-08-03T00:53:18;99335.25;;;22.90;50.51
54900;BME280;40801;41.924;25.562;2022-08-03T00:55:44;99340.38;;;22.88;50.71
54900;BME280;40801;41.924;25.562;2022-08-03T00:58:09;99347.81;;;22.88;50.53
54900;BME280;40801;41.924;25.562;2022-08-03T01:00:38;99341.47;;;22.80;51.03
54900;BME280;40801;41.924;25.562;2022-08-03T01:03:05;99346.19;;;22.79;50.86
54900;BME280;40801;41.924;25.562;2022-08-03T01:08:22;99352.84;;;22.75;51.86
54900;BME280;40801;41.924;25.562;2022-08-03T01:16:22;99350.03;;;22.61;52.23
54900;BME280;40801;41.924;25.562;2022-08-03T01:18:56;99335.13;;;22.62;51.98
54900;BME280;40801;41.924;25.562;2022-08-03T01:21:28;99347.28;;;22.57;52.01
54900;BME280;40801;41.924;25.562;2022-08-03T01:31:56;99349.59;;;22.55;52.28
54900;BME280;40801;41.924;25.562;2022-08-03T01:34:25;99346.84;;;22.55;51.86
54900;BME280;40801;41.924;25.562;2022-08-03T01:36:55;99352.75;;;22.53;52.07
54900;BME280;40801;41.924;25.562;2022-08-03T01:39:21;99351.50;;;22.40;53.39
54900;BME280;40801;41.924;25.562;2022-08-03T01:41:53;99350.34;;;22.45;52.26
54900;BME280;40801;41.924;25.562;2022-08-03T01:44:22;99358.97;;;22.43;52.11
54900;BME280;40801;41.924;25.562;2022-08-03T01:46:48;99359.38;;;22.42;52.16
54900;BME280;40801;41.924;25.562;2022-08-03T01:49:15;99360.13;;;22.35;52.21
54900;BME280;40801;41.924;25.562;2022-08-03T01:51:44;99366.41;;;22.39;52.39
54900;BME280;40801;41.924;25.562;2022-08-03T01:54:12;99364.06;;;22.38;52.10
54900;BME280;40801;41.924;25.562;2022-08-03T01:56:39;99369.53;;;22.34;52.58
54900;BME280;40801;41.924;25.562;2022-08-03T01:59:06;99372.59;;;22.25;52.41
54900;BME280;40801;41.924;25.562;2022-08-03T02:01:34;99368.66;;;22.23;52.79
54900;BME280;40801;41.924;25.562;2022-08-03T02:04:01;99365.13;;;22.19;53.12
54900;BME280;40801;41.924;25.562;2022-08-03T02:06:29;99366.66;;;22.13;53.13
54900;BME280;40801;41.924;25.562;2022-08-03T02:08:58;99363.06;;;22.05;53.53
54900;BME280;40801;41.924;25.562;2022-08-03T02:11:25;99370.94;;;22.07;53.16
54900;BME280;40801;41.924;25.562;2022-08-03T02:13:51;99366.22;;;22.04;53.19
54900;BME280;40801;41.924;25.562;2022-08-03T02:16:18;99374.78;;;21.99;53.47
54900;BME280;40801;41.924;25.562;2022-08-03T02:18:44;99368.13;;;22.03;53.21
54900;BME280;40801;41.924;25.562;2022-08-03T02:21:12;99370.09;;;22.03;53.19
54900;BME280;40801;41.924;25.562;2022-08-03T02:23:39;99368.50;;;22.02;53.19
54900;BME280;40801;41.924;25.562;2022-08-03T02:26:08;99362.94;;;21.91;53.66
54900;BME280;40801;41.924;25.562;2022-08-03T02:28:39;99364.50;;;21.92;53.71
54900;BME280;40801;41.924;25.562;2022-08-03T02:31:11;99362.13;;;21.87;54.20
54900;BME280;40801;41.924;25.562;2022-08-03T02:33:41;99363.25;;;21.82;54.04
54900;BME280;40801;41.924;25.562;2022-08-03T02:36:08;99369.53;;;21.83;53.88
54900;BME280;40801;41.924;25.562;2022-08-03T02:38:38;99368.28;;;21.73;54.23
54900;BME280;40801;41.924;25.562;2022-08-03T02:41:08;99362.81;;;21.73;54.26
54900;BME280;40801;41.924;25.562;2022-08-03T02:43:39;99371.00;;;21.70;54.25
54900;BME280;40801;41.924;25.562;2022-08-03T02:46:06;99370.56;;;21.68;54.17
54900;BME280;40801;41.924;25.562;2022-08-03T02:48:34;99368.22;;;21.66;54.14
54900;BME280;40801;41.924;25.562;2022-08-03T02:51:02;99374.09;;;21.68;54.11
54900;BME280;40801;41.924;25.562;2022-08-03T02:53:29;99377.28;;;21.70;54.09
54900;BME280;40801;41.924;25.562;2022-08-03T02:55:56;99373.81;;;21.77;53.81
54900;BME280;40801;41.924;25.562;2022-08-03T02:58:23;99375.75;;;21.73;54.11
54900;BME280;40801;41.924;25.562;2022-08-03T03:00:50;99379.59;;;21.68;54.28
54900;BME280;40801;41.924;25.562;2022-08-03T03:03:16;99367.81;;;21.64;54.12
54900;BME280;40801;41.924;25.562;2022-08-03T03:05:43;99380.41;;;21.69;54.22
54900;BME280;40801;41.924;25.562;2022-08-03T03:08:14;99383.50;;;21.67;54.71
54900;BME280;40801;41.924;25.562;2022-08-03T03:10:40;99385.47;;;21.67;54.26
54900;BME280;40801;41.924;25.562;2022-08-03T03:13:06;99392.88;;;21.62;54.58
54900;BME280;40801;41.924;25.562;2022-08-03T03:15:34;99393.19;;;21.54;55.00
54900;BME280;40801;41.924;25.562;2022-08-03T03:18:01;99379.88;;;21.52;54.82
54900;BME280;40801;41.924;25.562;2022-08-03T03:20:27;99392.78;;;21.52;54.71
54900;BME280;40801;41.924;25.562;2022-08-03T03:22:53;99390.53;;;21.61;54.70
54900;BME280;40801;41.924;25.562;2022-08-03T03:25:20;99397.22;;;21.63;54.61
54900;BME280;40801;41.924;25.562;2022-08-03T03:27:45;99389.38;;;21.65;54.50
54900;BME280;40801;41.924;25.562;2022-08-03T03:30:13;99400.81;;;21.71;54.46
54900;BME280;40801;41.924;25.562;2022-08-03T03:32:38;99397.72;;;21.76;54.35
54900;BME280;40801;41.924;25.562;2022-08-03T03:35:05;99397.03;;;21.86;54.30
54900;BME280;40801;41.924;25.562;2022-08-03T03:37:31;99395.13;;;21.94;54.12
54900;BME280;40801;41.924;25.562;2022-08-03T03:39:57;99403.09;;;22.06;53.89
54900;BME280;40801;41.924;25.562;2022-08-03T03:42:22;99409.84;;;22.19;53.70
54900;BME280;40801;41.924;25.562;2022-08-03T03:44:49;99409.16;;;22.30;53.27
54900;BME280;40801;41.924;25.562;2022-08-03T03:47:14;99409.19;;;22.37;53.30
54900;BME280;40801;41.924;25.562;2022-08-03T03:49:40;99419.88;;;22.49;53.15
54900;BME280;40801;41.924;25.562;2022-08-03T03:52:07;99423.47;;;22.60;52.91
54900;BME280;40801;41.924;25.562;2022-08-03T03:54:43;99417.63;;;22.72;52.92
54900;BME280;40801;41.924;25.562;2022-08-03T03:57:09;99421.69;;;22.85;52.23
54900;BME280;40801;41.924;25.562;2022-08-03T03:59:41;99424.88;;;22.98;52.14
54900;BME280;40801;41.924;25.562;2022-08-03T04:02:08;99422.16;;;23.12;51.57
54900;BME280;40801;41.924;25.562;2022-08-03T04:04:35;99431.63;;;23.18;51.58
54900;BME280;40801;41.924;25.562;2022-08-03T04:07:25;99423.38;;;23.26;51.71
54900;BME280;40801;41.924;25.562;2022-08-03T04:10:17;99433.63;;;23.29;52.19
54900;BME280;40801;41.924;25.562;2022-08-03T04:13:06;99420.66;;;23.29;51.92
54900;BME280;40801;41.924;25.562;2022-08-03T04:15:36;99428.13;;;23.32;52.03
54900;BME280;40801;41.924;25.562;2022-08-03T04:18:02;99430.09;;;23.35;51.47
54900;BME280;40801;41.924;25.562;2022-08-03T04:20:31;99430.94;;;23.46;51.55
54900;BME280;40801;41.924;25.562;2022-08-03T04:23:00;99428.56;;;23.48;51.35
54900;BME280;40801;41.924;25.562;2022-08-03T04:25:29;99427.81;;;23.62;51.10
54900;BME280;40801;41.924;25.562;2022-08-03T04:27:56;99434.94;;;23.74;50.95
54900;BME280;40801;41.924;25.562;2022-08-03T04:30:26;99435.31;;;23.83;50.86
54900;BME280;40801;41.924;25.562;2022-08-03T04:32:55;99432.97;;;23.85;50.88
54900;BME280;40801;41.924;25.562;2022-08-03T04:35:22;99436.91;;;23.91;50.61
54900;BME280;40801;41.924;25.562;2022-08-03T04:37:50;99442.81;;;23.97;50.69
54900;BME280;40801;41.924;25.562;2022-08-03T04:40:36;99438.88;;;24.08;50.70
54900;BME280;40801;41.924;25.562;2022-08-03T04:43:04;99443.59;;;24.19;50.50
54900;BME280;40801;41.924;25.562;2022-08-03T04:45:31;99439.69;;;24.37;49.80
54900;BME280;40801;41.924;25.562;2022-08-03T04:47:57;99445.97;;;24.45;49.90
54900;BME280;40801;41.924;25.562;2022-08-03T04:50:23;99441.22;;;24.49;50.08
54900;BME280;40801;41.924;25.562;2022-08-03T04:52:49;99447.53;;;24.60;49.62
54900;BME280;40801;41.924;25.562;2022-08-03T04:55:27;99448.28;;;24.68;50.35
54900;BME280;40801;41.924;25.562;2022-08-03T04:57:52;99455.38;;;24.65;50.13
54900;BME280;40801;41.924;25.562;2022-08-03T05:00:18;99451.03;;;24.68;50.59
54900;BME280;40801;41.924;25.562;2022-08-03T05:02:44;99458.50;;;24.78;49.99
54900;BME280;40801;41.924;25.562;2022-08-03T05:05:09;99447.44;;;24.85;50.08
54900;BME280;40801;41.924;25.562;2022-08-03T05:07:36;99452.56;;;24.87;50.24
54900;BME280;40801;41.924;25.562;2022-08-03T05:10:06;99448.19;;;25.07;50.51
54900;BME280;40801;41.924;25.562;2022-08-03T05:12:32;99455.25;;;25.12;50.08
54900;BME280;40801;41.924;25.562;2022-08-03T05:14:57;99457.16;;;25.29;49.78
54900;BME280;40801;41.924;25.562;2022-08-03T05:17:23;99458.66;;;25.48;49.62
54900;BME280;40801;41.924;25.562;2022-08-03T05:19:48;99470.75;;;25.68;49.17
54900;BME280;40801;41.924;25.562;2022-08-03T05:22:14;99466.00;;;25.72;49.03
54900;BME280;40801;41.924;25.562;2022-08-03T05:24:39;99463.25;;;25.76;49.06
54900;BME280;40801;41.924;25.562;2022-08-03T05:27:04;99463.84;;;25.98;48.73
54900;BME280;40801;41.924;25.562;2022-08-03T05:29:30;99464.13;;;26.14;48.58
54900;BME280;40801;41.924;25.562;2022-08-03T05:31:55;99476.22;;;26.38;47.92
54900;BME280;40801;41.924;25.562;2022-08-03T05:34:21;99466.75;;;26.35;47.97
54900;BME280;40801;41.924;25.562;2022-08-03T05:36:46;99476.09;;;26.48;47.79
54900;BME280;40801;41.924;25.562;2022-08-03T05:39:11;99477.97;;;26.59;47.45
54900;BME280;40801;41.924;25.562;2022-08-03T05:41:37;99483.03;;;26.67;47.39
54900;BME280;40801;41.924;25.562;2022-08-03T05:44:03;99474.00;;;27.01;47.14
54900;BME280;40801;41.924;25.562;2022-08-03T05:46:28;99476.94;;;27.21;46.87
54900;BME280;40801;41.924;25.562;2022-08-03T05:48:54;99471.03;;;27.15;46.63
54900;BME280;40801;41.924;25.562;2022-08-03T05:51:19;99480.38;;;27.28;46.30
54900;BME280;40801;41.924;25.562;2022-08-03T05:53:45;99481.34;;;27.45;46.00
54900;BME280;40801;41.924;25.562;2022-08-03T05:56:10;99482.84;;;27.53;46.14
54900;BME280;40801;41.924;25.562;2022-08-03T05:58:36;99485.72;;;27.73;45.90
54900;BME280;40801;41.924;25.562;2022-08-03T06:01:02;99487.56;;;27.83;45.78
54900;BME280;40801;41.924;25.562;2022-08-03T06:03:27;99487.88;;;27.89;46.06
54900;BME280;40801;41.924;25.562;2022-08-03T06:05:53;99484.84;;;28.06;45.62
54900;BME280;40801;41.924;25.562;2022-08-03T06:08:22;99488.41;;;28.34;45.35
54900;BME280;40801;41.924;25.562;2022-08-03T06:10:48;99495.25;;;28.49;45.50
54900;BME280;40801;41.924;25.562;2022-08-03T06:13:14;99484.22;;;28.46;45.01
54900;BME280;40801;41.924;25.562;2022-08-03T06:15:39;99492.78;;;28.55;44.66
54900;BME280;40801;41.924;25.562;2022-08-03T06:18:06;99496.50;;;28.68;44.73
54900;BME280;40801;41.924;25.562;2022-08-03T06:20:32;99491.19;;;28.54;44.69
54900;BME280;40801;41.924;25.562;2022-08-03T06:22:57;99495.19;;;28.53;44.79
54900;BME280;40801;41.924;25.562;2022-08-03T06:25:24;99499.81;;;28.59;45.11
54900;BME280;40801;41.924;25.562;2022-08-03T06:27:50;99501.66;;;28.46;45.47
54900;BME280;40801;41.924;25.562;2022-08-03T06:30:15;99493.06;;;28.60;44.96
54900;BME280;40801;41.924;25.562;2022-08-03T06:32:41;99497.34;;;28.65;45.34
54900;BME280;40801;41.924;25.562;2022-08-03T06:35:08;99500.91;;;28.65;44.76
54900;BME280;40801;41.924;25.562;2022-08-03T06:37:44;99501.06;;;28.78;44.89
54900;BME280;40801;41.924;25.562;2022-08-03T06:40:14;99501.84;;;29.02;44.10
54900;BME280;40801;41.924;25.562;2022-08-03T06:42:40;99496.34;;;29.18;43.86
54900;BME280;40801;41.924;25.562;2022-08-03T06:45:07;99495.66;;;29.54;42.83
54900;BME280;40801;41.924;25.562;2022-08-03T06:47:34;99490.53;;;29.69;41.92
54900;BME280;40801;41.924;25.562;2022-08-03T06:49:59;99497.28;;;29.51;40.91
54900;BME280;40801;41.924;25.562;2022-08-03T06:52:25;99495.34;;;29.48;40.49
54900;BME280;40801;41.924;25.562;2022-08-03T06:54:50;99492.16;;;29.50;40.98
54900;BME280;40801;41.924;25.562;2022-08-03T06:57:16;99493.44;;;29.81;39.87
54900;BME280;40801;41.924;25.562;2022-08-03T06:59:43;99495.00;;;29.99;37.89
54900;BME280;40801;41.924;25.562;2022-08-03T07:02:08;99498.06;;;29.52;37.39
54900;BME280;40801;41.924;25.562;2022-08-03T07:04:34;99491.22;;;29.73;37.00
54900;BME280;40801;41.924;25.562;2022-08-03T07:07:00;99501.44;;;29.79;37.87
54900;BME280;40801;41.924;25.562;2022-08-03T07:09:26;99492.41;;;29.91;37.06
54900;BME280;40801;41.924;25.562;2022-08-03T07:11:52;99500.38;;;30.09;36.29
54900;BME280;40801;41.924;25.562;2022-08-03T07:14:18;99499.66;;;30.21;36.31
54900;BME280;40801;41.924;25.562;2022-08-03T07:16:43;99492.88;;;30.39;36.07
54900;BME280;40801;41.924;25.562;2022-08-03T07:19:08;99503.47;;;30.60;35.49
54900;BME280;40801;41.924;25.562;2022-08-03T07:21:34;99499.13;;;30.88;34.85
54900;BME280;40801;41.924;25.562;2022-08-03T07:23:59;99494.44;;;30.85;34.19
54900;BME280;40801;41.924;25.562;2022-08-03T07:26:25;99506.03;;;30.83;34.62
54900;BME280;40801;41.924;25.562;2022-08-03T07:28:50;99503.81;;;30.91;34.16
54900;BME280;40801;41.924;25.562;2022-08-03T07:31:15;99507.69;;;31.10;34.49
54900;BME280;40801;41.924;25.562;2022-08-03T07:33:41;99504.34;;;31.02;33.84
54900;BME280;40801;41.924;25.562;2022-08-03T07:36:07;99504.94;;;30.94;34.07
54900;BME280;40801;41.924;25.562;2022-08-03T07:38:34;99501.00;;;31.07;33.85
54900;BME280;40801;41.924;25.562;2022-08-03T07:41:00;99501.50;;;31.19;34.27
54900;BME280;40801;41.924;25.562;2022-08-03T07:43:25;99509.25;;;31.40;34.07
54900;BME280;40801;41.924;25.562;2022-08-03T07:45:50;99502.81;;;31.68;33.73
54900;BME280;40801;41.924;25.562;2022-08-03T07:48:16;99493.16;;;31.86;33.06
54900;BME280;40801;41.924;25.562;2022-08-03T07:50:41;99495.03;;;32.14;33.14
54900;BME280;40801;41.924;25.562;2022-08-03T07:53:07;99502.25;;;32.24;32.76
54900;BME280;40801;41.924;25.562;2022-08-03T07:55:32;99491.78;;;32.63;31.93
54900;BME280;40801;41.924;25.562;2022-08-03T07:58:00;99497.06;;;32.95;31.87
54900;BME280;40801;41.924;25.562;2022-08-03T08:00:26;99492.13;;;33.00;30.85
54900;BME280;40801;41.924;25.562;2022-08-03T08:02:51;99503.22;;;33.12;30.49
54900;BME280;40801;41.924;25.562;2022-08-03T08:05:17;99497.56;;;33.47;30.23
54900;BME280;40801;41.924;25.562;2022-08-03T08:07:42;99491.31;;;33.74;29.45
54900;BME280;40801;41.924;25.562;2022-08-03T08:10:09;99494.75;;;33.78;29.55
54900;BME280;40801;41.924;25.562;2022-08-03T08:12:35;99500.38;;;34.18;28.68
54900;BME280;40801;41.924;25.562;2022-08-03T08:15:02;99495.06;;;33.71;28.24
54900;BME280;40801;41.924;25.562;2022-08-03T08:17:27;99499.06;;;34.41;28.27
54900;BME280;40801;41.924;25.562;2022-08-03T08:19:53;99484.31;;;34.86;27.57
54900;BME280;40801;41.924;25.562;2022-08-03T08:22:18;99485.50;;;35.22;27.65
54900;BME280;40801;41.924;25.562;2022-08-03T08:24:44;99488.09;;;35.53;26.88
54900;BME280;40801;41.924;25.562;2022-08-03T08:27:09;99481.41;;;35.92;26.54
54900;BME280;40801;41.924;25.562;2022-08-03T08:29:37;99478.97;;;36.09;26.40
54900;BME280;40801;41.924;25.562;2022-08-03T08:32:02;99480.72;;;36.54;26.06
54900;BME280;40801;41.924;25.562;2022-08-03T08:34:28;99479.00;;;36.72;25.34
54900;BME280;40801;41.924;25.562;2022-08-03T08:36:54;99476.94;;;36.81;25.02
54900;BME280;40801;41.924;25.562;2022-08-03T08:39:19;99474.88;;;36.19;25.37
54900;BME280;40801;41.924;25.562;2022-08-03T08:41:44;99476.59;;;36.41;25.42
54900;BME280;40801;41.924;25.562;2022-08-03T08:44:10;99475.78;;;36.88;25.27
54900;BME280;40801;41.924;25.562;2022-08-03T08:46:37;99485.69;;;36.98;24.46
54900;BME280;40801;41.924;25.562;2022-08-03T08:49:03;99480.66;;;37.17;24.98
54900;BME280;40801;41.924;25.562;2022-08-03T08:51:32;99476.28;;;37.16;24.91
54900;BME280;40801;41.924;25.562;2022-08-03T08:54:02;99487.84;;;37.62;24.22
54900;BME280;40801;41.924;25.562;2022-08-03T08:56:31;99482.38;;;37.00;24.22
54900;BME280;40801;41.924;25.562;2022-08-03T08:58:59;99470.56;;;37.10;24.30
54900;BME280;40801;41.924;25.562;2022-08-03T09:01:24;99470.84;;;37.57;24.12
54900;BME280;40801;41.924;25.562;2022-08-03T09:03:50;99475.09;;;37.81;23.80
54900;BME280;40801;41.924;25.562;2022-08-03T09:06:19;99471.03;;;37.68;23.68
54900;BME280;40801;41.924;25.562;2022-08-03T09:08:44;99469.69;;;37.78;23.14
54900;BME280;40801;41.924;25.562;2022-08-03T09:11:10;99464.88;;;37.99;23.13
54900;BME280;40801;41.924;25.562;2022-08-03T09:13:35;99466.09;;;37.77;23.25
54900;BME280;40801;41.924;25.562;2022-08-03T09:16:17;99458.97;;;37.97;22.74
54900;BME280;40801;41.924;25.562;2022-08-03T09:18:53;99459.25;;;37.34;22.90
54900;BME280;40801;41.924;25.562;2022-08-03T09:21:21;99454.53;;;37.90;22.99
54900;BME280;40801;41.924;25.562;2022-08-03T09:23:49;99457.13;;;38.14;22.71
54900;BME280;40801;41.924;25.562;2022-08-03T09:26:25;99461.03;;;38.37;22.43
54900;BME280;40801;41.924;25.562;2022-08-03T09:29:07;99455.00;;;38.24;22.38
54900;BME280;40801;41.924;25.562;2022-08-03T09:31:38;99458.16;;;38.52;22.62
54900;BME280;40801;41.924;25.562;2022-08-03T09:34:09;99456.38;;;38.54;22.57
54900;BME280;40801;41.924;25.562;2022-08-03T09:36:48;99449.69;;;38.72;21.33
54900;BME280;40801;41.924;25.562;2022-08-03T09:41:44;99453.75;;;38.71;21.76
54900;BME280;40801;41.924;25.562;2022-08-03T09:44:10;99448.13;;;38.71;21.52
54900;BME280;40801;41.924;25.562;2022-08-03T09:46:55;99445.78;;;39.16;21.04
54900;BME280;40801;41.924;25.562;2022-08-03T09:49:21;99449.56;;;39.39;21.27
54900;BME280;40801;41.924;25.562;2022-08-03T09:51:47;99438.00;;;39.37;21.29
54900;BME280;40801;41.924;25.562;2022-08-03T09:54:24;99443.72;;;39.79;20.39
54900;BME280;40801;41.924;25.562;2022-08-03T09:56:50;99431.41;;;39.82;20.44
54900;BME280;40801;41.924;25.562;2022-08-03T09:59:24;99440.66;;;39.83;20.13
54900;BME280;40801;41.924;25.562;2022-08-03T10:01:50;99422.47;;;40.38;19.65
54900;BME280;40801;41.924;25.562;2022-08-03T10:04:16;99430.91;;;40.32;19.63
54900;BME280;40801;41.924;25.562;2022-08-03T10:07:00;99427.66;;;39.59;20.34
54900;BME280;40801;41.924;25.562;2022-08-03T10:09:26;99420.25;;;40.05;20.33
54900;BME280;40801;41.924;25.562;2022-08-03T10:11:51;99408.09;;;40.47;19.86
54900;BME280;40801;41.924;25.562;2022-08-03T10:14:17;99412.06;;;40.12;20.28
54900;BME280;40801;41.924;25.562;2022-08-03T10:16:43;99409.75;;;40.11;20.32
54900;BME280;40801;41.924;25.562;2022-08-03T10:19:09;99408.34;;;40.38;19.88
54900;BME280;40801;41.924;25.562;2022-08-03T10:21:37;99397.34;;;40.51;19.64
54900;BME280;40801;41.924;25.562;2022-08-03T10:24:05;99396.66;;;40.19;19.26
54900;BME280;40801;41.924;25.562;2022-08-03T10:26:35;99407.13;;;39.59;19.60
54900;BME280;40801;41.924;25.562;2022-08-03T10:29:04;99408.25;;;39.73;20.30
54900;BME280;40801;41.924;25.562;2022-08-03T10:31:37;99406.91;;;39.62;20.26
54900;BME280;40801;41.924;25.562;2022-08-03T10:34:08;99406.25;;;39.84;20.32
54900;BME280;40801;41.924;25.562;2022-08-03T10:36:36;99402.78;;;40.06;20.44
54900;BME280;40801;41.924;25.562;2022-08-03T10:39:03;99397.94;;;40.94;19.82
54900;BME280;40801;41.924;25.562;2022-08-03T10:41:36;99391.94;;;40.59;19.73
54900;BME280;40801;41.924;25.562;2022-08-03T10:44:21;99397.66;;;40.87;19.50
54900;BME280;40801;41.924;25.562;2022-08-03T10:46:50;99397.66;;;40.10;19.79
54900;BME280;40801;41.924;25.562;2022-08-03T10:49:17;99380.56;;;38.56;21.10
54900;BME280;40801;41.924;25.562;2022-08-03T10:51:47;99389.81;;;37.96;21.69
54900;BME280;40801;41.924;25.562;2022-08-03T10:54:39;99381.03;;;37.23;22.72
54900;BME280;40801;41.924;25.562;2022-08-03T10:58:00;99392.22;;;37.68;22.17
54900;BME280;40801;41.924;25.562;2022-08-03T11:00:26;99383.63;;;38.32;21.58
54900;BME280;40801;41.924;25.562;2022-08-03T11:03:09;99376.91;;;39.02;21.48
54900;BME280;40801;41.924;25.562;2022-08-03T11:05:40;99380.94;;;40.01;20.24
54900;BME280;40801;41.924;25.562;2022-08-03T11:10:55;99353.50;;;40.18;19.74
54900;BME280;40801;41.924;25.562;2022-08-03T11:13:23;99366.25;;;40.73;19.33
54900;BME280;40801;41.924;25.562;2022-08-03T11:15:50;99369.41;;;40.10;19.83
54900;BME280;40801;41.924;25.562;2022-08-03T11:18:16;99373.25;;;40.83;19.52
54900;BME280;40801;41.924;25.562;2022-08-03T11:20:52;99359.34;;;41.02;18.39
54900;BME280;40801;41.924;25.562;2022-08-03T11:23:39;99356.38;;;40.24;19.18
54900;BME280;40801;41.924;25.562;2022-08-03T11:26:09;99364.13;;;39.75;20.41
54900;BME280;40801;41.924;25.562;2022-08-03T11:28:35;99357.66;;;39.63;19.53
54900;BME280;40801;41.924;25.562;2022-08-03T11:34:06;99349.28;;;38.28;21.90
54900;BME280;40801;41.924;25.562;2022-08-03T11:39:46;99346.16;;;37.01;21.86
54900;BME280;40801;41.924;25.562;2022-08-03T11:42:38;99346.84;;;36.51;22.97
54900;BME280;40801;41.924;25.562;2022-08-03T11:45:06;99338.88;;;36.11;22.99
54900;BME280;40801;41.924;25.562;2022-08-03T11:47:35;99337.91;;;36.68;23.51
54900;BME280;40801;41.924;25.562;2022-08-03T11:50:01;99340.31;;;37.69;22.46
54900;BME280;40801;41.924;25.562;2022-08-03T11:52:33;99337.41;;;38.70;20.93
54900;BME280;40801;41.924;25.562;2022-08-03T11:54:59;99339.63;;;39.61;20.84
54900;BME280;40801;41.924;25.562;2022-08-03T11:57:29;99332.84;;;41.00;18.91
54900;BME280;40801;41.924;25.562;2022-08-03T11:59:55;99332.75;;;41.61;18.94
54900;BME280;40801;41.924;25.562;2022-08-03T12:02:20;99325.75;;;41.85;18.45
54900;BME280;40801;41.924;25.562;2022-08-03T12:04:52;99329.19;;;42.24;17.97
54900;BME280;40801;41.924;25.562;2022-08-03T12:07:18;99331.94;;;41.83;18.13
54900;BME280;40801;41.924;25.562;2022-08-03T12:10:13;99322.06;;;40.98;18.49
54900;BME280;40801;41.924;25.562;2022-08-03T12:12:40;99319.81;;;39.98;19.93
54900;BME280;40801;41.924;25.562;2022-08-03T12:15:06;99308.19;;;39.85;19.28
54900;BME280;40801;41.924;25.562;2022-08-03T12:17:37;99306.28;;;40.24;18.94
54900;BME280;40801;41.924;25.562;2022-08-03T12:20:05;99301.50;;;39.88;19.75
54900;BME280;40801;41.924;25.562;2022-08-03T12:22:35;99301.38;;;38.80;21.71
54900;BME280;40801;41.924;25.562;2022-08-03T12:25:02;99301.31;;;38.49;20.48
54900;BME280;40801;41.924;25.562;2022-08-03T12:27:28;99295.59;;;38.63;20.88
54900;BME280;40801;41.924;25.562;2022-08-03T12:29:55;99297.34;;;38.35;20.84
54900;BME280;40801;41.924;25.562;2022-08-03T12:32:21;99301.81;;;37.80;21.75
54900;BME280;40801;41.924;25.562;2022-08-03T12:34:48;99293.50;;;38.90;21.75
54900;BME280;40801;41.924;25.562;2022-08-03T12:37:20;99292.47;;;39.24;20.85
54900;BME280;40801;41.924;25.562;2022-08-03T12:39:57;99285.94;;;40.04;19.90
54900;BME280;40801;41.924;25.562;2022-08-03T12:42:35;99296.34;;;40.85;18.30
54900;BME280;40801;41.924;25.562;2022-08-03T12:45:20;99292.63;;;41.52;18.74
54900;BME280;40801;41.924;25.562;2022-08-03T12:48:08;99287.56;;;41.05;17.74
54900;BME280;40801;41.924;25.562;2022-08-03T12:50:35;99288.59;;;40.46;19.01
54900;BME280;40801;41.924;25.562;2022-08-03T12:53:03;99283.78;;;39.76;19.03
54900;BME280;40801;41.924;25.562;2022-08-03T12:55:30;99266.28;;;38.55;20.62
54900;BME280;40801;41.924;25.562;2022-08-03T12:58:02;99293.88;;;37.79;21.50
54900;BME280;40801;41.924;25.562;2022-08-03T13:00:29;99292.44;;;37.13;21.90
54900;BME280;40801;41.924;25.562;2022-08-03T13:03:03;99295.59;;;36.56;23.19
54900;BME280;40801;41.924;25.562;2022-08-03T13:05:29;99304.59;;;36.46;22.65
54900;BME280;40801;41.924;25.562;2022-08-03T13:07:55;99305.81;;;36.15;23.14
54900;BME280;40801;41.924;25.562;2022-08-03T13:10:31;99302.44;;;35.63;23.96
54900;BME280;40801;41.924;25.562;2022-08-03T13:12:58;99301.41;;;35.52;24.04
54900;BME280;40801;41.924;25.562;2022-08-03T13:15:29;99293.69;;;35.37;24.14
54900;BME280;40801;41.924;25.562;2022-08-03T13:17:55;99301.50;;;35.00;24.58
54900;BME280;40801;41.924;25.562;2022-08-03T13:20:21;99298.72;;;34.91;24.63
54900;BME280;40801;41.924;25.562;2022-08-03T13:22:47;99302.50;;;34.70;25.09
54900;BME280;40801;41.924;25.562;2022-08-03T13:25:12;99307.06;;;34.49;25.24